createdAt,value
2022-11-25T00:00:00.928Z,100.00
2022-11-25T00:02:27.492Z,100.00
2022-11-25T00:04:54.091Z,100.00
2022-11-25T00:07:20.657Z,100.00
2022-11-25T00:09:47.124Z,100.00
2022-11-25T00:12:13.555Z,100.00
2022-11-25T00:14:40.032Z,100.00
2022-11-25T00:17:06.535Z,100.00
2022-11-25T00:19:33.554Z,100.00
2022-11-25T00:21:59.994Z,100.00
2022-11-25T00:24:27.353Z,100.00
2022-11-25T00:26:53.785Z,100.00
2022-11-25T00:29:20.231Z,100.00
2022-11-25T00:31:46.723Z,100.00
2022-11-25T00:34:14.611Z,100.00
2022-11-25T00:36:41.240Z,100.00
2022-11-25T00:39:13.749Z,100.00
2022-11-25T00:42:00.138Z,100.00
2022-11-25T00:44:37.311Z,100.00
2022-11-25T00:47:08.085Z,100.00
2022-11-25T00:49:35.194Z,100.00
2022-11-25T00:52:02.159Z,100.00
2022-11-25T00:54:28.647Z,100.00
2022-11-25T00:56:55.164Z,100.00
2022-11-25T00:59:21.658Z,100.00
2022-11-25T01:01:48.458Z,100.00
2022-11-25T01:04:15.411Z,100.00
2022-11-25T01:06:41.906Z,100.00
2022-11-25T01:09:09.098Z,100.00
2022-11-25T01:11:38.565Z,100.00
2022-11-25T01:14:05.372Z,100.00
2022-11-25T01:16:32.329Z,100.00
2022-11-25T01:19:00.430Z,100.00
2022-11-25T01:21:29.815Z,100.00
2022-11-25T01:23:56.663Z,100.00
2022-11-25T01:26:24.909Z,100.00
2022-11-25T01:29:00.137Z,100.00
2022-11-25T01:31:29.471Z,100.00
2022-11-25T01:33:58.935Z,100.00
2022-11-25T01:36:25.855Z,100.00
2022-11-25T01:38:55.188Z,100.00
2022-11-25T01:41:23.428Z,100.00
2022-11-25T01:44:14.373Z,100.00
2022-11-25T01:46:49.963Z,100.00
2022-11-25T01:49:26.872Z,100.00
2022-11-25T01:51:53.269Z,100.00
2022-11-25T01:54:24.030Z,100.00
2022-11-25T01:56:56.444Z,100.00
2022-11-25T01:59:23.838Z,100.00
2022-11-25T02:01:50.693Z,100.00
2022-11-25T02:04:20.279Z,100.00
2022-11-25T02:06:57.652Z,100.00
2022-11-25T02:09:27.032Z,100.00
2022-11-25T02:11:54.104Z,100.00
2022-11-25T02:14:22.459Z,100.00
2022-11-25T02:16:51.999Z,100.00
2022-11-25T02:19:32.077Z,100.00
2022-11-25T02:22:05.079Z,100.00
2022-11-25T02:24:43.003Z,100.00
2022-11-25T02:27:09.605Z,100.00
2022-11-25T02:29:37.409Z,100.00
2022-11-25T02:32:05.909Z,100.00
2022-11-25T02:34:32.470Z,100.00
2022-11-25T02:37:00.587Z,100.00
2022-11-25T02:39:28.610Z,100.00
2022-11-25T02:42:00.129Z,100.00
2022-11-25T02:44:27.381Z,100.00
2022-11-25T02:46:53.827Z,100.00
2022-11-25T02:49:20.395Z,100.00
2022-11-25T02:51:47.895Z,100.00
2022-11-25T02:54:17.508Z,100.00
2022-11-25T02:56:43.981Z,100.00
2022-11-25T02:59:11.112Z,100.00
2022-11-25T03:01:39.007Z,100.00
2022-11-25T03:04:07.747Z,100.00
2022-11-25T03:06:35.054Z,100.00
2022-11-25T03:09:02.549Z,100.00
2022-11-25T03:11:48.481Z,100.00
2022-11-25T03:14:15.525Z,100.00
2022-11-25T03:16:43.054Z,100.00
2022-11-25T03:19:09.711Z,100.00
2022-11-25T03:21:36.735Z,100.00
2022-11-25T03:24:03.322Z,100.00
2022-11-25T03:26:29.839Z,100.00
2022-11-25T03:28:56.320Z,100.00
2022-11-25T03:31:23.176Z,100.00
2022-11-25T03:33:49.684Z,100.00
2022-11-25T03:36:16.032Z,100.00
2022-11-25T03:38:42.545Z,100.00
2022-11-25T03:41:09.121Z,100.00
2022-11-25T03:43:36.481Z,100.00
2022-11-25T03:46:03.067Z,100.00
2022-11-25T03:48:30.315Z,100.00
2022-11-25T03:50:56.970Z,100.00
2022-11-25T03:53:25.242Z,100.00
2022-11-25T03:55:52.103Z,100.00
2022-11-25T03:58:21.459Z,100.00
2022-11-25T04:00:49.685Z,100.00
2022-11-25T04:03:16.664Z,100.00
2022-11-25T04:05:43.599Z,100.00
2022-11-25T04:08:10.074Z,100.00
2022-11-25T04:10:38.127Z,100.00
2022-11-25T04:13:05.940Z,100.00
2022-11-25T04:15:44.850Z,100.00
2022-11-25T04:18:11.374Z,100.00
2022-11-25T04:20:39.144Z,100.00
2022-11-25T04:23:08.447Z,100.00
2022-11-25T04:25:40.947Z,100.00
2022-11-25T04:28:12.450Z,100.00
2022-11-25T04:30:39.547Z,100.00
2022-11-25T04:33:06.523Z,100.00
2022-11-25T04:35:33.024Z,100.00
2022-11-25T04:37:59.598Z,100.00
2022-11-25T04:40:26.132Z,100.00
2022-11-25T04:43:10.862Z,100.00
2022-11-25T04:48:28.919Z,100.00
2022-11-25T04:50:55.827Z,100.00
2022-11-25T04:53:22.458Z,100.00
2022-11-25T04:55:49.072Z,100.00
2022-11-25T04:58:35.786Z,100.00
2022-11-25T05:01:03.195Z,100.00
2022-11-25T05:03:30.235Z,100.00
2022-11-25T05:05:56.979Z,100.00
2022-11-25T05:08:23.999Z,100.00
2022-11-25T05:10:50.535Z,100.00
2022-11-25T05:13:17.168Z,100.00
2022-11-25T05:15:44.236Z,100.00
2022-11-25T05:18:12.374Z,100.00
2022-11-25T05:20:44.419Z,100.00
2022-11-25T05:23:11.595Z,100.00
2022-11-25T05:25:38.106Z,100.00
2022-11-25T05:28:26.198Z,100.00
2022-11-25T05:30:53.304Z,100.00
2022-11-25T05:33:20.299Z,100.00
2022-11-25T05:36:01.353Z,100.00
2022-11-25T05:38:35.049Z,100.00
2022-11-25T05:41:04.696Z,100.00
2022-11-25T05:43:31.599Z,100.00
2022-11-25T05:46:00.286Z,100.00
2022-11-25T05:48:27.031Z,100.00
2022-11-25T05:50:53.556Z,100.00
2022-11-25T05:53:22.806Z,100.00
2022-11-25T05:56:00.002Z,100.00
2022-11-25T05:58:50.509Z,100.00
2022-11-25T06:01:17.594Z,100.00
2022-11-25T06:03:45.331Z,100.00
2022-11-25T06:06:12.079Z,100.00
2022-11-25T06:08:39.796Z,100.00
2022-11-25T06:11:12.221Z,100.00
2022-11-25T06:13:39.349Z,100.00
2022-11-25T06:16:09.345Z,100.00
2022-11-25T06:18:37.502Z,100.00
2022-11-25T06:21:07.191Z,100.00
2022-11-25T06:23:34.290Z,100.00
2022-11-25T06:26:13.692Z,100.00
2022-11-25T06:28:40.463Z,100.00
2022-11-25T06:31:15.530Z,100.00
2022-11-25T06:33:53.825Z,100.00
2022-11-25T06:36:22.269Z,100.00
2022-11-25T06:38:51.839Z,100.00
2022-11-25T06:41:18.904Z,100.00
2022-11-25T06:43:45.442Z,100.00
2022-11-25T06:46:18.524Z,100.00
2022-11-25T06:48:49.581Z,100.00
2022-11-25T06:51:16.484Z,100.00
2022-11-25T06:53:43.626Z,100.00
2022-11-25T06:56:14.441Z,100.00
2022-11-25T06:58:42.239Z,100.00
2022-11-25T07:01:17.511Z,100.00
2022-11-25T07:03:45.601Z,100.00
2022-11-25T07:06:13.668Z,100.00
2022-11-25T07:08:40.770Z,100.00
2022-11-25T07:11:10.578Z,100.00
2022-11-25T07:13:37.075Z,100.00
2022-11-25T07:16:05.578Z,100.00
2022-11-25T07:18:34.254Z,100.00
2022-11-25T07:21:09.449Z,100.00
2022-11-25T07:23:37.541Z,100.00
2022-11-25T07:26:15.148Z,100.00
2022-11-25T07:28:42.496Z,100.00
2022-11-25T07:31:24.206Z,100.00
2022-11-25T07:33:55.867Z,100.00
2022-11-25T07:36:23.182Z,100.00
2022-11-25T07:38:49.684Z,100.00
2022-11-25T07:41:24.533Z,100.00
2022-11-25T07:43:54.486Z,100.00
2022-11-25T07:46:34.653Z,100.00
2022-11-25T07:49:05.299Z,100.00
2022-11-25T07:51:40.909Z,100.00
2022-11-25T07:54:10.062Z,100.00
2022-11-25T07:56:38.813Z,100.00
2022-11-25T07:59:06.319Z,100.00
2022-11-25T08:01:32.830Z,100.00
2022-11-25T08:03:59.394Z,100.00
2022-11-25T08:06:28.714Z,100.00
2022-11-25T08:08:56.710Z,100.00
2022-11-25T08:11:29.509Z,100.00
2022-11-25T08:13:57.249Z,100.00
2022-11-25T08:16:27.243Z,100.00
2022-11-25T08:18:54.854Z,100.00
2022-11-25T08:21:21.531Z,100.00
2022-11-25T08:23:48.855Z,100.00
2022-11-25T08:26:20.693Z,100.00
2022-11-25T08:28:47.653Z,100.00
2022-11-25T08:31:20.937Z,100.00
2022-11-25T08:33:48.268Z,100.00
2022-11-25T08:36:15.901Z,100.00
2022-11-25T08:38:43.076Z,100.00
2022-11-25T08:41:12.653Z,100.00
2022-11-25T08:43:39.373Z,100.00
2022-11-25T08:46:12.100Z,100.00
2022-11-25T08:48:38.671Z,100.00
2022-11-25T08:51:18.386Z,100.00
2022-11-25T08:53:46.818Z,100.00
2022-11-25T08:56:14.918Z,100.00
2022-11-25T08:58:41.720Z,100.00
2022-11-25T09:01:09.551Z,100.00
2022-11-25T09:03:42.055Z,100.00
2022-11-25T09:06:09.538Z,100.00
2022-11-25T09:08:37.599Z,100.00
2022-11-25T09:11:04.672Z,100.00
2022-11-25T09:13:31.441Z,100.00
2022-11-25T09:15:58.377Z,100.00
2022-11-25T09:18:26.261Z,100.00
2022-11-25T09:20:53.821Z,100.00
2022-11-25T09:23:20.591Z,100.00
2022-11-25T09:25:55.035Z,100.00
2022-11-25T09:28:22.609Z,100.00
2022-11-25T09:30:50.027Z,100.00
2022-11-25T09:33:17.252Z,100.00
2022-11-25T09:35:44.051Z,100.00
2022-11-25T09:38:10.555Z,100.00
2022-11-25T09:40:49.397Z,100.00
2022-11-25T09:43:56.368Z,100.00
2022-11-25T09:46:56.731Z,100.00
2022-11-25T09:49:40.945Z,100.00
2022-11-25T09:52:20.001Z,100.00
2022-11-25T09:54:59.489Z,100.00
2022-11-25T09:58:03.448Z,100.00
2022-11-25T10:00:40.877Z,100.00
2022-11-25T10:03:29.318Z,100.00
2022-11-25T10:06:18.905Z,100.00
2022-11-25T10:08:51.473Z,100.00
2022-11-25T10:11:21.711Z,100.00
2022-11-25T10:13:52.608Z,100.00
2022-11-25T10:16:33.536Z,100.00
2022-11-25T10:19:08.290Z,100.00
2022-11-25T10:21:34.739Z,100.00
2022-11-25T10:24:02.857Z,100.00
2022-11-25T10:26:37.177Z,100.00
2022-11-25T10:29:30.515Z,100.00
2022-11-25T10:32:09.267Z,100.00
2022-11-25T10:34:45.714Z,100.00
2022-11-25T10:37:24.918Z,100.00
2022-11-25T10:39:51.391Z,100.00
2022-11-25T10:42:25.125Z,100.00
2022-11-25T10:44:52.119Z,100.00
2022-11-25T10:47:44.247Z,100.00
2022-11-25T10:50:15.979Z,100.00
2022-11-25T10:52:50.116Z,100.00
2022-11-25T10:55:28.981Z,100.00
2022-11-25T10:57:56.113Z,100.00
2022-11-25T11:00:31.114Z,100.00
2022-11-25T11:02:58.699Z,100.00
2022-11-25T11:05:30.811Z,99.97
2022-11-25T11:08:12.283Z,100.00
2022-11-25T11:10:39.494Z,98.94
2022-11-25T11:13:17.846Z,98.34
2022-11-25T11:33:31.015Z,99.25
2022-11-25T11:36:34.990Z,98.54
2022-11-25T11:39:08.374Z,97.60
2022-11-25T11:41:56.610Z,96.66
2022-11-25T11:44:35.363Z,95.14
2022-11-25T11:47:12.614Z,94.67
2022-11-25T11:50:09.391Z,95.80
2022-11-25T11:52:56.519Z,95.55
2022-11-25T11:56:11.691Z,93.75
2022-11-25T11:58:59.051Z,97.88
2022-11-25T12:01:44.298Z,95.61
2022-11-25T12:04:27.862Z,95.44
2022-11-25T12:07:12.144Z,94.33
2022-11-25T12:10:14.058Z,94.09
2022-11-25T12:12:48.566Z,94.74
2022-11-25T12:15:30.011Z,94.93
2022-11-25T12:18:02.520Z,94.85
2022-11-25T12:20:52.961Z,93.36
2022-11-25T12:23:36.177Z,95.40
2022-11-25T12:26:09.950Z,96.01
2022-11-25T12:28:43.735Z,96.89
2022-11-25T12:31:25.918Z,96.46
2022-11-25T12:34:00.170Z,95.11
2022-11-25T12:36:34.376Z,94.92
2022-11-25T12:39:19.434Z,95.65
2022-11-25T12:41:54.846Z,95.59
2022-11-25T12:44:42.838Z,96.47
2022-11-25T12:47:11.470Z,95.43
2022-11-25T12:49:47.114Z,95.77
2022-11-25T12:52:39.232Z,98.30
2022-11-25T12:55:08.940Z,98.31
2022-11-25T12:58:00.087Z,97.19
2022-11-25T13:01:03.551Z,97.41
2022-11-25T13:04:07.346Z,98.38
2022-11-25T13:06:52.542Z,98.56
2022-11-25T13:09:39.054Z,98.90
2022-11-25T13:12:41.868Z,100.00
2022-11-25T13:15:27.190Z,97.88
2022-11-25T13:18:16.655Z,96.98
2022-11-25T13:20:45.777Z,97.69
2022-11-25T13:23:13.021Z,96.32
2022-11-25T13:25:42.901Z,98.00
2022-11-25T13:28:37.715Z,98.76
2022-11-25T13:31:13.290Z,97.92
2022-11-25T13:33:42.546Z,100.00
2022-11-25T13:36:19.944Z,99.62
2022-11-25T13:38:49.400Z,99.16
2022-11-25T13:41:15.986Z,99.88
2022-11-25T13:44:02.524Z,99.91
2022-11-25T13:46:45.450Z,99.11
2022-11-25T13:49:42.363Z,100.00
2022-11-25T13:52:11.800Z,99.95
2022-11-25T13:54:49.681Z,100.00
2022-11-25T13:57:31.352Z,100.00
2022-11-25T14:00:05.912Z,100.00
2022-11-25T14:02:49.278Z,100.00
2022-11-25T14:05:36.660Z,100.00
2022-11-25T14:08:19.359Z,100.00
2022-11-25T14:10:53.283Z,100.00
2022-11-25T14:13:44.323Z,100.00
2022-11-25T14:16:29.472Z,100.00
2022-11-25T14:19:50.704Z,100.00
2022-11-25T14:22:12.500Z,100.00
2022-11-25T14:24:49.600Z,100.00
2022-11-25T14:27:31.970Z,100.00
2022-11-25T14:30:06.695Z,100.00
2022-11-25T14:32:36.777Z,100.00
2022-11-25T14:35:11.503Z,100.00
2022-11-25T14:37:59.136Z,100.00
2022-11-25T14:40:36.537Z,100.00
2022-11-25T14:43:07.980Z,100.00
2022-11-25T14:45:35.934Z,100.00
2022-11-25T14:48:18.915Z,100.00
2022-11-25T14:50:56.374Z,100.00
2022-11-25T14:53:22.890Z,100.00
2022-11-25T14:55:49.432Z,100.00
2022-11-25T14:58:16.423Z,100.00
2022-11-25T15:01:04.088Z,100.00
2022-11-25T15:03:30.744Z,100.00
2022-11-25T15:06:02.653Z,100.00
2022-11-25T15:08:39.690Z,100.00
2022-11-25T15:11:12.786Z,100.00
2022-11-25T15:13:42.175Z,100.00
2022-11-25T15:16:30.282Z,100.00
2022-11-25T15:18:59.059Z,100.00
2022-11-25T15:22:14.639Z,100.00
2022-11-25T15:24:29.595Z,100.00
2022-11-25T15:26:59.903Z,100.00
2022-11-25T15:29:28.794Z,100.00
2022-11-25T15:31:56.512Z,100.00
2022-11-25T15:34:23.991Z,100.00
2022-11-25T15:36:54.473Z,100.00
2022-11-25T15:39:20.944Z,100.00
2022-11-25T15:41:49.501Z,100.00
2022-11-25T15:44:29.409Z,100.00
2022-11-25T15:47:05.121Z,100.00
2022-11-25T15:49:33.934Z,100.00
2022-11-25T15:52:08.931Z,100.00
2022-11-25T15:54:42.893Z,100.00
2022-11-25T15:57:23.311Z,100.00
2022-11-25T16:00:05.438Z,100.00
2022-11-25T16:02:41.954Z,100.00
2022-11-25T16:05:32.272Z,100.00
2022-11-25T16:08:23.064Z,100.00
2022-11-25T16:10:52.938Z,100.00
2022-11-25T16:13:25.648Z,100.00
2022-11-25T16:15:58.078Z,100.00
2022-11-25T16:18:46.667Z,100.00
2022-11-25T16:21:30.218Z,100.00
2022-11-25T16:24:14.183Z,100.00
2022-11-25T16:27:00.665Z,100.00
2022-11-25T16:29:31.623Z,100.00
2022-11-25T16:31:59.210Z,100.00
2022-11-25T16:34:26.948Z,100.00
2022-11-25T16:36:54.242Z,100.00
2022-11-25T16:39:20.685Z,100.00
2022-11-25T16:41:54.648Z,100.00
2022-11-25T16:44:23.190Z,100.00
2022-11-25T16:46:51.057Z,100.00
2022-11-25T16:49:18.951Z,100.00
2022-11-25T16:51:45.772Z,100.00
2022-11-25T16:54:12.760Z,100.00
2022-11-25T16:56:42.360Z,100.00
2022-11-25T16:59:20.725Z,100.00
2022-11-25T17:01:47.405Z,100.00
2022-11-25T17:04:14.985Z,100.00
2022-11-25T17:06:42.165Z,100.00
2022-11-25T17:09:08.718Z,100.00
2022-11-25T17:11:52.047Z,100.00
2022-11-25T17:14:24.841Z,100.00
2022-11-25T17:16:51.632Z,100.00
2022-11-25T17:19:18.204Z,100.00
2022-11-25T17:21:44.925Z,100.00
2022-11-25T17:24:22.578Z,100.00
2022-11-25T17:26:59.559Z,100.00
2022-11-25T17:29:35.219Z,100.00
2022-11-25T17:32:02.724Z,100.00
2022-11-25T17:34:29.300Z,100.00
2022-11-25T17:36:56.437Z,100.00
2022-11-25T17:39:22.896Z,100.00
2022-11-25T17:41:51.617Z,100.00
2022-11-25T17:44:28.771Z,100.00
2022-11-25T17:46:56.877Z,100.00
2022-11-25T17:49:24.120Z,100.00
2022-11-25T17:51:50.781Z,100.00
2022-11-25T17:54:17.832Z,100.00
2022-11-25T17:56:49.188Z,100.00
2022-11-25T17:59:28.290Z,100.00
2022-11-25T18:01:56.056Z,100.00
2022-11-25T18:04:32.111Z,100.00
2022-11-25T18:06:58.536Z,100.00
2022-11-25T18:09:24.934Z,100.00
2022-11-25T18:11:54.360Z,100.00
2022-11-25T18:14:28.366Z,100.00
2022-11-25T18:16:55.311Z,100.00
2022-11-25T18:19:21.964Z,100.00
2022-11-25T18:21:48.463Z,100.00
2022-11-25T18:24:14.843Z,100.00
2022-11-25T18:26:48.015Z,100.00
2022-11-25T18:29:20.028Z,100.00
2022-11-25T18:31:47.201Z,100.00
2022-11-25T18:34:15.446Z,100.00
2022-11-25T18:36:42.797Z,100.00
2022-11-25T18:39:10.114Z,100.00
2022-11-25T18:41:38.225Z,100.00
2022-11-25T18:44:06.615Z,100.00
2022-11-25T18:46:37.724Z,100.00
2022-11-25T18:49:14.480Z,100.00
2022-11-25T18:51:41.818Z,100.00
2022-11-25T18:54:09.561Z,100.00
2022-11-25T18:56:37.688Z,100.00
2022-11-25T18:59:06.278Z,100.00
2022-11-25T19:01:32.857Z,100.00
2022-11-25T19:04:00.081Z,100.00
2022-11-25T19:06:30.173Z,100.00
2022-11-25T19:08:56.672Z,100.00
2022-11-25T19:11:30.220Z,100.00
2022-11-25T19:14:03.918Z,100.00
2022-11-25T19:16:30.439Z,100.00
2022-11-25T19:18:56.968Z,100.00
2022-11-25T19:21:23.325Z,100.00
2022-11-25T19:23:49.866Z,100.00
2022-11-25T19:26:23.674Z,100.00
2022-11-25T19:28:54.721Z,100.00
2022-11-25T19:31:21.366Z,100.00
2022-11-25T19:33:51.012Z,100.00
2022-11-25T19:36:23.740Z,100.00
2022-11-25T19:38:50.294Z,100.00
2022-11-25T19:41:16.746Z,100.00
2022-11-25T19:43:43.225Z,100.00
2022-11-25T19:46:33.113Z,100.00
2022-11-25T19:49:04.907Z,100.00
2022-11-25T19:51:33.930Z,100.00
2022-11-25T19:54:00.461Z,100.00
2022-11-25T19:56:27.243Z,100.00
2022-11-25T19:58:54.626Z,100.00
2022-11-25T20:01:30.388Z,100.00
2022-11-25T20:03:58.234Z,100.00
2022-11-25T20:06:25.819Z,100.00
2022-11-25T20:08:52.338Z,100.00
2022-11-25T20:11:19.267Z,100.00
2022-11-25T20:13:46.909Z,100.00
2022-11-25T20:16:22.732Z,100.00
2022-11-25T20:18:51.500Z,100.00
2022-11-25T20:21:26.400Z,100.00
2022-11-25T20:23:53.909Z,100.00
2022-11-25T20:26:38.066Z,100.00
2022-11-25T20:29:15.554Z,100.00
2022-11-25T20:31:42.134Z,100.00
2022-11-25T20:34:08.702Z,100.00
2022-11-25T20:36:35.351Z,100.00
2022-11-25T20:39:03.289Z,100.00
2022-11-25T20:41:30.738Z,100.00
2022-11-25T20:43:57.873Z,100.00
2022-11-25T20:46:29.384Z,100.00
2022-11-25T20:49:02.198Z,100.00
2022-11-25T20:51:29.059Z,100.00
2022-11-25T20:53:57.990Z,100.00
2022-11-25T20:56:26.839Z,100.00
2022-11-25T20:58:53.726Z,100.00
2022-11-25T21:01:20.599Z,100.00
2022-11-25T21:03:49.137Z,100.00
2022-11-25T21:06:25.661Z,100.00
2022-11-25T21:08:54.014Z,100.00
2022-11-25T21:11:21.691Z,100.00
2022-11-25T21:13:48.698Z,100.00
2022-11-25T21:16:15.466Z,100.00
2022-11-25T21:18:42.860Z,100.00
2022-11-25T21:21:19.448Z,100.00
2022-11-25T21:23:47.929Z,100.00
2022-11-25T21:26:20.665Z,100.00
2022-11-25T21:28:50.037Z,100.00
2022-11-25T21:31:22.435Z,100.00
2022-11-25T21:33:49.965Z,100.00
2022-11-25T21:36:27.121Z,100.00
2022-11-25T21:39:02.942Z,100.00
2022-11-25T21:41:29.671Z,100.00
2022-11-25T21:43:56.271Z,100.00
2022-11-25T21:46:26.660Z,100.00
2022-11-25T21:48:53.367Z,100.00
2022-11-25T21:51:24.032Z,100.00
2022-11-25T21:53:51.389Z,100.00
2022-11-25T21:56:30.876Z,100.00
2022-11-25T21:58:59.742Z,100.00
2022-11-25T22:01:26.416Z,100.00
2022-11-25T22:03:53.081Z,100.00
2022-11-25T22:06:26.253Z,100.00
2022-11-25T22:08:52.928Z,100.00
2022-11-25T22:11:28.683Z,100.00
2022-11-25T22:13:55.303Z,100.00
2022-11-25T22:16:28.958Z,100.00
2022-11-25T22:18:55.912Z,100.00
2022-11-25T22:21:22.879Z,100.00
2022-11-25T22:23:49.788Z,100.00
2022-11-25T22:26:21.371Z,100.00
2022-11-25T22:28:51.618Z,100.00
2022-11-25T22:31:20.250Z,100.00
2022-11-25T22:33:47.463Z,100.00
2022-11-25T22:36:34.027Z,100.00
2022-11-25T22:39:23.363Z,100.00
2022-11-25T22:42:07.412Z,100.00
2022-11-25T22:44:42.776Z,100.00
2022-11-25T22:47:22.846Z,100.00
2022-11-25T22:49:50.459Z,100.00
2022-11-25T22:52:21.944Z,100.00
2022-11-25T22:54:49.327Z,100.00
2022-11-25T22:57:17.041Z,100.00
2022-11-25T22:59:44.077Z,100.00
2022-11-25T23:18:13.835Z,100.00
2022-11-25T23:20:40.346Z,100.00
2022-11-25T23:23:21.476Z,100.00
2022-11-25T23:25:48.728Z,100.00
2022-11-25T23:28:16.395Z,100.00
2022-11-25T23:30:48.153Z,100.00
2022-11-25T23:33:22.828Z,100.00
2022-11-25T23:35:49.408Z,100.00
2022-11-25T23:38:21.502Z,100.00
2022-11-25T23:40:48.003Z,100.00
2022-11-25T23:43:15.614Z,100.00
2022-11-25T23:45:51.296Z,100.00
2022-11-25T23:48:20.497Z,100.00
2022-11-25T23:50:47.641Z,100.00
2022-11-25T23:53:36.034Z,100.00
2022-11-25T23:56:02.618Z,100.00
2022-11-25T23:58:29.222Z,100.00
